createdAt,value
2022-09-30T00:00:15.406Z,74.05
2022-09-30T00:01:15.390Z,74.08
2022-09-30T00:02:15.380Z,74.69
2022-09-30T00:03:15.373Z,74.22
2022-09-30T00:04:15.375Z,73.57
2022-09-30T00:05:15.367Z,73.03
2022-09-30T00:06:15.364Z,72.31
2022-09-30T00:07:15.334Z,71.6
2022-09-30T00:08:15.329Z,71.87
2022-09-30T00:09:15.315Z,71.6
2022-09-30T00:10:15.304Z,72
2022-09-30T00:11:15.334Z,72.11
2022-09-30T00:12:15.281Z,72.41
2022-09-30T00:13:15.270Z,72.31
2022-09-30T00:14:15.260Z,71.8
2022-09-30T00:15:15.254Z,72.41
2022-09-30T00:16:15.241Z,73.27
2022-09-30T00:17:15.228Z,72.79
2022-09-30T00:18:15.216Z,72.75
2022-09-30T00:19:15.206Z,73.16
2022-09-30T00:20:15.195Z,72.96
2022-09-30T00:21:15.189Z,73.81
2022-09-30T00:22:15.174Z,73.5
2022-09-30T00:23:15.173Z,74.11
2022-09-30T00:24:15.156Z,74.15
2022-09-30T00:25:15.142Z,74.59
2022-09-30T00:26:15.131Z,74.56
2022-09-30T00:27:15.124Z,74.66
2022-09-30T00:28:15.109Z,74.9
2022-09-30T00:29:15.107Z,75.82
2022-09-30T00:30:15.088Z,75.31
2022-09-30T00:31:15.083Z,74.66
2022-09-30T00:32:15.065Z,74.25
2022-09-30T00:33:15.060Z,74.9
2022-09-30T00:34:15.058Z,75.41
2022-09-30T00:35:15.035Z,75.96
2022-09-30T00:36:15.022Z,76.06
2022-09-30T00:37:15.013Z,75.85
2022-09-30T00:38:15.009Z,77.08
2022-09-30T00:39:14.992Z,76.06
2022-09-30T00:40:14.982Z,75.85
2022-09-30T00:41:14.976Z,75.96
2022-09-30T00:42:14.958Z,75.51
2022-09-30T00:43:14.949Z,74.87
2022-09-30T00:44:14.944Z,74.87
2022-09-30T00:45:14.934Z,74.56
2022-09-30T00:46:14.920Z,74.97
2022-09-30T00:47:14.905Z,73.98
2022-09-30T00:48:14.901Z,75
2022-09-30T00:49:14.890Z,76.03
2022-09-30T00:50:14.885Z,75.1
2022-09-30T00:51:14.872Z,75.51
2022-09-30T00:52:14.861Z,75.34
2022-09-30T00:53:14.845Z,75.75
2022-09-30T00:54:14.845Z,75.55
2022-09-30T00:55:14.820Z,75.21
2022-09-30T00:56:14.829Z,74.43
2022-09-30T00:57:14.802Z,74.93
2022-09-30T00:58:14.789Z,74.93
2022-09-30T00:59:14.777Z,74.73
2022-09-30T01:00:14.770Z,75.45
2022-09-30T01:01:14.756Z,75.92
2022-09-30T01:02:14.745Z,74.93
2022-09-30T01:03:14.739Z,74.49
2022-09-30T01:04:14.741Z,73.98
2022-09-30T01:05:14.713Z,74.39
2022-09-30T01:06:14.705Z,74.39
2022-09-30T01:07:14.692Z,74.63
2022-09-30T01:08:14.681Z,74.84
2022-09-30T01:09:14.673Z,74.63
2022-09-30T01:10:14.664Z,74.43
2022-09-30T01:11:14.653Z,74.32
2022-09-30T01:12:14.644Z,74.76
2022-09-30T01:13:14.632Z,75.42
2022-09-30T01:14:14.616Z,75.38
2022-09-30T01:15:14.609Z,75.14
2022-09-30T01:16:14.597Z,73.77
2022-09-30T01:17:14.600Z,72.92
2022-09-30T01:18:14.575Z,72.48
2022-09-30T01:19:14.565Z,72.17
2022-09-30T01:20:14.554Z,71.67
2022-09-30T01:21:14.545Z,71.8
2022-09-30T01:22:14.536Z,72.52
2022-09-30T01:23:14.522Z,72.62
2022-09-30T01:24:14.510Z,73.03
2022-09-30T01:25:14.506Z,72.52
2022-09-30T01:26:14.492Z,73.33
2022-09-30T01:27:14.478Z,72.21
2022-09-30T01:28:14.471Z,73.06
2022-09-30T01:29:14.461Z,74.05
2022-09-30T01:30:14.452Z,74.32
2022-09-30T01:31:14.443Z,73.98
2022-09-30T01:32:14.426Z,73.64
2022-09-30T01:33:14.426Z,73.3
2022-09-30T01:34:14.409Z,72.52
2022-09-30T01:35:14.393Z,72.41
2022-09-30T01:36:14.386Z,72.72
2022-09-30T01:37:14.371Z,72.69
2022-09-30T01:38:14.356Z,71.56
2022-09-30T01:39:14.345Z,71.8
2022-09-30T01:40:14.334Z,71.91
2022-09-30T01:41:14.323Z,71.7
2022-09-30T01:42:14.319Z,72.14
2022-09-30T01:43:14.298Z,72.89
2022-09-30T01:44:14.289Z,73.85
2022-09-30T01:45:14.280Z,73.85
2022-09-30T01:46:14.266Z,73.94
2022-09-30T01:47:14.258Z,74.22
2022-09-30T01:48:14.258Z,72.96
2022-09-30T01:49:14.238Z,73.27
2022-09-30T01:50:14.223Z,72.34
2022-09-30T01:51:14.213Z,72.65
2022-09-30T01:52:14.206Z,72.72
2022-09-30T01:53:14.192Z,72.45
2022-09-30T01:54:14.180Z,73.16
2022-09-30T01:55:14.168Z,73.3
2022-09-30T01:56:14.156Z,74.05
2022-09-30T01:57:14.148Z,74.73
2022-09-30T01:58:14.135Z,74.84
2022-09-30T01:59:14.124Z,75.62
2022-09-30T02:00:14.113Z,74.76
2022-09-30T02:01:14.101Z,74.29
2022-09-30T02:02:14.092Z,76.17
2022-09-30T02:03:14.092Z,75.96
2022-09-30T02:04:14.073Z,75.45
2022-09-30T02:05:14.057Z,74.73
2022-09-30T02:06:14.049Z,75.55
2022-09-30T02:07:14.036Z,76.06
2022-09-30T02:08:14.025Z,75.45
2022-09-30T02:09:14.014Z,76.68
2022-09-30T02:10:14.005Z,75.93
2022-09-30T02:11:14.015Z,75.01
2022-09-30T02:12:13.986Z,75.59
2022-09-30T02:13:13.975Z,74.39
2022-09-30T02:14:13.961Z,75.65
2022-09-30T02:15:13.951Z,74.97
2022-09-30T02:16:13.942Z,73.54
2022-09-30T02:17:13.929Z,73.03
2022-09-30T02:18:13.930Z,72.92
2022-09-30T02:19:13.909Z,72.62
2022-09-30T02:20:13.898Z,72.92
2022-09-30T02:21:13.891Z,74.08
2022-09-30T02:22:13.878Z,74.32
2022-09-30T02:23:13.865Z,74.94
2022-09-30T02:24:13.862Z,74.02
2022-09-30T02:25:13.849Z,73.74
2022-09-30T02:26:13.834Z,73.13
2022-09-30T02:27:13.820Z,73.23
2022-09-30T02:28:13.810Z,72.48
2022-09-30T02:29:13.804Z,72.17
2022-09-30T02:30:13.793Z,73.06
2022-09-30T02:31:13.783Z,72.96
2022-09-30T02:32:13.767Z,73.68
2022-09-30T02:33:13.761Z,73.03
2022-09-30T02:34:13.748Z,72.62
2022-09-30T02:35:13.736Z,72.07
2022-09-30T02:36:13.726Z,72.28
2022-09-30T02:37:13.723Z,71.87
2022-09-30T02:38:13.705Z,73.33
2022-09-30T02:39:13.699Z,72.92
2022-09-30T02:40:13.685Z,73.33
2022-09-30T02:41:13.673Z,72.52
2022-09-30T02:42:13.664Z,73.23
2022-09-30T02:43:13.683Z,73.3
2022-09-30T02:44:13.645Z,72.69
2022-09-30T02:45:13.630Z,72.48
2022-09-30T02:46:13.619Z,72.45
2022-09-30T02:47:13.614Z,71.83
2022-09-30T02:48:13.600Z,72.55
2022-09-30T02:49:13.592Z,72.24
2022-09-30T02:50:13.582Z,72.24
2022-09-30T02:51:13.573Z,72.41
2022-09-30T02:52:13.576Z,72.55
2022-09-30T02:53:13.549Z,72.89
2022-09-30T02:54:13.536Z,73.5
2022-09-30T02:55:13.528Z,72.58
2022-09-30T02:56:13.520Z,73.85
2022-09-30T02:57:13.503Z,74.35
2022-09-30T02:58:13.501Z,75.1
2022-09-30T02:59:13.480Z,74.56
2022-09-30T03:00:13.474Z,74.26
2022-09-30T03:01:13.458Z,74.15
2022-09-30T03:02:13.449Z,74.8
2022-09-30T03:03:13.438Z,74.39
2022-09-30T03:04:13.430Z,74.8
2022-09-30T03:05:13.420Z,74.08
2022-09-30T03:06:13.408Z,76.17
2022-09-30T03:07:13.401Z,75.65
2022-09-30T03:08:13.391Z,75.76
2022-09-30T03:09:13.377Z,75.76
2022-09-30T03:10:13.365Z,75.99
2022-09-30T03:11:13.359Z,77.09
2022-09-30T03:12:13.347Z,75.76
2022-09-30T03:13:13.335Z,76.06
2022-09-30T03:14:13.322Z,75.76
2022-09-30T03:15:13.316Z,76.27
2022-09-30T03:16:13.302Z,75.76
2022-09-30T03:17:13.291Z,76.47
2022-09-30T03:18:13.278Z,75.52
2022-09-30T03:19:13.268Z,74.76
2022-09-30T03:20:13.259Z,75.27
2022-09-30T03:21:13.266Z,74.84
2022-09-30T03:22:13.256Z,73.3
2022-09-30T03:23:13.249Z,74.02
2022-09-30T03:24:13.221Z,73.91
2022-09-30T03:25:13.205Z,73.71
2022-09-30T03:26:13.199Z,74.22
2022-09-30T03:27:13.186Z,74.32
2022-09-30T03:28:13.174Z,74.11
2022-09-30T03:29:13.162Z,73.81
2022-09-30T03:30:13.153Z,73.85
2022-09-30T03:31:13.145Z,74.87
2022-09-30T03:32:13.133Z,74.97
2022-09-30T03:33:13.119Z,74.87
2022-09-30T03:34:13.117Z,74.52
2022-09-30T03:35:13.103Z,74.32
2022-09-30T03:36:13.091Z,73.98
2022-09-30T03:37:13.081Z,73.71
2022-09-30T03:38:13.065Z,74.22
2022-09-30T03:39:13.061Z,73.3
2022-09-30T03:40:13.049Z,73.91
2022-09-30T03:41:13.035Z,72.89
2022-09-30T03:42:13.026Z,73.44
2022-09-30T03:43:13.025Z,75.04
2022-09-30T03:44:13.005Z,75.72
2022-09-30T03:45:12.996Z,75.62
2022-09-30T03:46:12.982Z,75.52
2022-09-30T03:47:12.975Z,75.01
2022-09-30T03:48:13.019Z,74.69
2022-09-30T03:49:12.992Z,74.97
2022-09-30T03:50:12.946Z,73.33
2022-09-30T03:51:12.929Z,73.94
2022-09-30T03:52:12.917Z,74.15
2022-09-30T03:53:12.906Z,73.98
2022-09-30T03:54:12.899Z,75.65
2022-09-30T03:55:12.887Z,75.73
2022-09-30T03:56:12.878Z,77.57
2022-09-30T03:57:12.870Z,76.72
2022-09-30T03:58:12.856Z,75.48
2022-09-30T03:59:12.847Z,75.59
2022-09-30T04:00:12.845Z,75.99
2022-09-30T04:01:12.826Z,74.73
2022-09-30T04:02:12.817Z,74.32
2022-09-30T04:03:12.806Z,74.11
2022-09-30T04:04:12.794Z,74.22
2022-09-30T04:05:12.781Z,73.33
2022-09-30T04:06:12.769Z,73.13
2022-09-30T04:07:12.763Z,74.19
2022-09-30T04:08:12.755Z,73.74
2022-09-30T04:09:12.742Z,74.6
2022-09-30T04:10:12.727Z,75.21
2022-09-30T04:11:12.718Z,75.38
2022-09-30T04:12:12.707Z,74.36
2022-09-30T04:13:12.697Z,73.85
2022-09-30T04:14:12.690Z,73.95
2022-09-30T04:15:12.683Z,73.71
2022-09-30T04:16:12.672Z,73.5
2022-09-30T04:17:12.654Z,73.71
2022-09-30T04:18:13.444Z,73.2
2022-09-30T04:19:12.629Z,73.1
2022-09-30T04:20:12.623Z,74.15
2022-09-30T04:21:12.608Z,73.91
2022-09-30T04:22:12.599Z,73.61
2022-09-30T04:23:12.589Z,74.15
2022-09-30T04:24:12.599Z,74.05
2022-09-30T04:25:12.574Z,73.61
2022-09-30T04:26:12.560Z,72.89
2022-09-30T04:27:12.551Z,72.92
2022-09-30T04:28:12.567Z,74.6
2022-09-30T04:29:12.526Z,73.98
2022-09-30T04:30:12.515Z,74.26
2022-09-30T04:31:12.516Z,74.36
2022-09-30T04:32:12.493Z,73.33
2022-09-30T04:33:12.485Z,74.26
2022-09-30T04:34:12.476Z,73.44
2022-09-30T04:35:12.478Z,74.26
2022-09-30T04:36:12.448Z,73.78
2022-09-30T04:37:12.440Z,75.76
2022-09-30T04:38:12.439Z,74.7
2022-09-30T04:39:12.420Z,75.42
2022-09-30T04:40:12.412Z,75.15
2022-09-30T04:41:12.400Z,75.24
2022-09-30T04:42:12.388Z,75.59
2022-09-30T04:43:12.376Z,75.9
2022-09-30T04:44:12.364Z,75.45
2022-09-30T04:45:12.354Z,76.1
2022-09-30T04:46:12.343Z,76.2
2022-09-30T04:47:12.336Z,76.45
2022-09-30T04:48:12.334Z,76.1
2022-09-30T04:49:12.311Z,76.31
2022-09-30T04:50:12.309Z,76.1
2022-09-30T04:51:12.300Z,77.03
2022-09-30T04:52:12.281Z,76.51
2022-09-30T04:53:12.272Z,77.64
2022-09-30T04:54:12.269Z,77.44
2022-09-30T04:55:12.254Z,77.29
2022-09-30T04:56:12.291Z,76.37
2022-09-30T04:57:12.240Z,75.42
2022-09-30T04:58:12.215Z,74.56
2022-09-30T04:59:12.213Z,73.5
2022-09-30T05:00:12.202Z,73.03
2022-09-30T05:01:12.196Z,74.39
2022-09-30T05:02:12.176Z,74.9
2022-09-30T05:03:12.161Z,76.27
2022-09-30T05:04:12.149Z,76.41
2022-09-30T05:05:12.148Z,77.58
2022-09-30T05:06:12.134Z,77.68
2022-09-30T05:07:12.156Z,76.68
2022-09-30T05:08:12.108Z,76.07
2022-09-30T05:09:12.125Z,75.66
2022-09-30T05:10:12.091Z,76.62
2022-09-30T05:11:12.077Z,76.31
2022-09-30T05:12:12.070Z,76.41
2022-09-30T05:13:12.059Z,75.79
2022-09-30T05:14:12.100Z,76.34
2022-09-30T05:15:12.094Z,77.17
2022-09-30T05:16:12.049Z,77.26
2022-09-30T05:17:12.073Z,77.78
2022-09-30T05:18:12.001Z,77.47
2022-09-30T05:19:11.993Z,75.69
2022-09-30T05:20:11.984Z,75.28
2022-09-30T05:21:11.989Z,74.87
2022-09-30T05:22:11.971Z,75.28
2022-09-30T05:23:11.956Z,75.56
2022-09-30T05:24:11.941Z,76.31
2022-09-30T05:25:11.929Z,77.54
2022-09-30T05:26:11.924Z,77.33
2022-09-30T05:27:11.905Z,77.64
2022-09-30T05:28:11.897Z,77.64
2022-09-30T05:29:11.883Z,77.33
2022-09-30T05:30:11.992Z,77.54
2022-09-30T05:31:11.862Z,77.33
2022-09-30T05:32:11.875Z,77.47
2022-09-30T05:33:11.841Z,77.57
2022-09-30T05:34:11.833Z,76.44
2022-09-30T05:35:11.826Z,77.61
2022-09-30T05:36:11.814Z,77.77
2022-09-30T05:37:11.798Z,77.57
2022-09-30T05:38:11.791Z,77.61
2022-09-30T05:39:11.783Z,77.47
2022-09-30T05:40:11.768Z,76.95
2022-09-30T05:41:11.761Z,77.71
2022-09-30T05:42:11.748Z,77.71
2022-09-30T05:43:11.761Z,77.4
2022-09-30T05:44:11.727Z,77.47
2022-09-30T05:45:11.713Z,77.16
2022-09-30T05:46:11.756Z,77.77
2022-09-30T05:47:11.712Z,77.47
2022-09-30T05:48:11.686Z,76.85
2022-09-30T05:49:11.678Z,77.23
2022-09-30T05:50:11.660Z,76.72
2022-09-30T05:51:11.655Z,75.48
2022-09-30T05:52:11.650Z,75.69
2022-09-30T05:53:11.633Z,75.38
2022-09-30T05:54:11.657Z,76.85
2022-09-30T05:55:11.611Z,76.61
2022-09-30T05:56:11.745Z,77.36
2022-09-30T05:57:11.660Z,76.51
2022-09-30T05:58:11.591Z,76.03
2022-09-30T05:59:11.607Z,75.48
2022-09-30T06:00:11.621Z,73.94
2022-09-30T06:01:11.573Z,74.26
2022-09-30T06:02:11.567Z,74.46
2022-09-30T06:03:11.621Z,73.85
2022-09-30T06:04:11.520Z,73.91
2022-09-30T06:05:11.519Z,72.89
2022-09-30T06:06:11.505Z,72.82
2022-09-30T06:07:11.487Z,71.59
2022-09-30T06:08:11.484Z,71.15
2022-09-30T06:09:11.467Z,71.02
2022-09-30T06:10:11.452Z,70.89
2022-09-30T06:11:11.454Z,69.73
2022-09-30T06:12:11.459Z,68.75
2022-09-30T06:13:11.420Z,68.41
2022-09-30T06:14:11.422Z,67.26
2022-09-30T06:15:11.402Z,66.49
2022-09-30T06:16:11.438Z,66.38
2022-09-30T06:17:11.391Z,64.86
2022-09-30T06:18:11.370Z,65.33
2022-09-30T06:19:11.366Z,64.15
2022-09-30T06:20:11.348Z,63.42
2022-09-30T06:21:11.370Z,62.1
2022-09-30T06:22:11.344Z,62.76
2022-09-30T06:23:11.315Z,62.79
2022-09-30T06:24:11.308Z,64.18
2022-09-30T06:25:11.311Z,64.04
2022-09-30T06:26:11.293Z,64.62
2022-09-30T06:27:11.284Z,63.48
2022-09-30T06:28:11.279Z,62.63
2022-09-30T06:29:11.252Z,60.95
2022-09-30T06:30:11.240Z,60.93
2022-09-30T06:31:11.234Z,62.08
2022-09-30T06:32:11.222Z,64.2
2022-09-30T06:33:11.209Z,66.33
2022-09-30T06:34:11.204Z,67.9
2022-09-30T06:35:11.231Z,67.62
2022-09-30T06:36:11.173Z,68.54
2022-09-30T06:37:11.165Z,68.23
2022-09-30T06:38:11.191Z,69.53
2022-09-30T06:39:11.155Z,68.01
2022-09-30T06:40:11.143Z,66.24
2022-09-30T06:41:11.127Z,64.86
2022-09-30T06:42:11.147Z,64.06
2022-09-30T06:43:11.101Z,62.63
2022-09-30T06:44:11.090Z,62.36
2022-09-30T06:45:11.102Z,63.59
2022-09-30T06:46:11.082Z,64.84
2022-09-30T06:47:11.107Z,65.92
2022-09-30T06:48:11.050Z,67.59
2022-09-30T06:49:11.073Z,66.94
2022-09-30T06:50:11.033Z,68.03
2022-09-30T06:51:11.011Z,68.23
2022-09-30T06:52:11.016Z,68.47
2022-09-30T06:53:11.003Z,70.64
2022-09-30T06:54:10.985Z,70.03
2022-09-30T06:55:10.971Z,70.47
2022-09-30T06:56:10.959Z,71.73
2022-09-30T06:57:10.973Z,72.62
2022-09-30T06:58:10.947Z,71.7
2022-09-30T06:59:10.927Z,72.28
2022-09-30T07:00:10.922Z,71.8
2022-09-30T07:01:10.908Z,68.85
2022-09-30T07:02:10.905Z,67.43
2022-09-30T07:03:10.886Z,65.73
2022-09-30T07:04:10.912Z,67.55
2022-09-30T07:05:10.864Z,67.9
2022-09-30T07:06:10.857Z,69.46
2022-09-30T07:07:10.843Z,69.32
2022-09-30T07:08:10.838Z,69.43
2022-09-30T07:09:10.824Z,66.55
2022-09-30T07:10:10.808Z,63.82
2022-09-30T07:11:10.816Z,62.04
2022-09-30T07:12:10.786Z,61.04
2022-09-30T07:13:10.779Z,57.92
2022-09-30T07:14:10.770Z,58.02
2022-09-30T07:15:10.754Z,58.07
2022-09-30T07:16:10.747Z,55.85
2022-09-30T07:17:10.739Z,55.67
2022-09-30T07:18:10.722Z,57.29
2022-09-30T07:19:10.727Z,55.74
2022-09-30T07:20:10.719Z,55.16
2022-09-30T07:21:10.703Z,54.96
2022-09-30T07:22:10.675Z,54.41
2022-09-30T07:23:10.739Z,54.94
2022-09-30T07:24:10.658Z,54.33
2022-09-30T07:25:10.668Z,53.55
2022-09-30T07:26:10.660Z,53.34
2022-09-30T07:27:10.625Z,53.58
2022-09-30T07:28:10.611Z,54.41
2022-09-30T07:29:10.604Z,53.45
2022-09-30T07:30:10.591Z,53.65
2022-09-30T07:31:10.588Z,52.92
2022-09-30T07:32:10.567Z,52.59
2022-09-30T07:33:10.568Z,53.12
2022-09-30T07:34:10.552Z,52.84
2022-09-30T07:35:10.538Z,53.34
2022-09-30T07:36:10.582Z,52.62
2022-09-30T07:37:10.521Z,53.12
2022-09-30T07:38:10.514Z,52.51
2022-09-30T07:39:10.498Z,53.55
2022-09-30T07:40:10.487Z,53.67
2022-09-30T07:41:10.476Z,53.38
2022-09-30T07:42:10.463Z,53.32
2022-09-30T07:43:10.462Z,53.12
2022-09-30T07:44:10.498Z,52.04
2022-09-30T07:45:10.446Z,51.42
2022-09-30T07:46:10.422Z,51.21
2022-09-30T07:47:10.449Z,51.36
2022-09-30T07:48:10.407Z,52.19
2022-09-30T07:49:10.405Z,52.82
2022-09-30T07:50:10.383Z,52.62
2022-09-30T07:51:10.366Z,53.67
2022-09-30T07:52:10.357Z,53.32
2022-09-30T07:53:10.345Z,54.23
2022-09-30T07:54:10.372Z,53.17
2022-09-30T07:55:10.323Z,51.26
2022-09-30T07:56:10.312Z,51.01
2022-09-30T07:57:10.317Z,48.99
2022-09-30T07:58:10.290Z,48.84
2022-09-30T07:59:10.294Z,48.22
2022-09-30T08:00:10.267Z,46.45
2022-09-30T08:01:10.257Z,46.68
2022-09-30T08:02:10.258Z,44.54
2022-09-30T08:03:10.238Z,44.65
2022-09-30T08:04:10.234Z,44.31
2022-09-30T08:05:10.223Z,46.85
2022-09-30T08:06:10.217Z,46.7
2022-09-30T08:07:10.194Z,46.33
2022-09-30T08:08:10.189Z,47.09
2022-09-30T08:09:10.175Z,48.96
2022-09-30T08:10:10.183Z,48.72
2022-09-30T08:11:10.151Z,48.44
2022-09-30T08:12:10.144Z,48.61
2022-09-30T08:13:10.142Z,47.25
2022-09-30T08:14:10.124Z,47.35
2022-09-30T08:15:10.109Z,46.62
2022-09-30T08:16:10.096Z,47.81
2022-09-30T08:17:10.098Z,48.82
2022-09-30T08:18:10.127Z,48.99
2022-09-30T08:19:10.066Z,50.26
2022-09-30T08:20:10.054Z,53.52
2022-09-30T08:21:10.044Z,55.31
2022-09-30T08:22:10.039Z,57.41
2022-09-30T08:23:10.081Z,57.84
2022-09-30T08:24:10.007Z,59.44
2022-09-30T08:25:10.008Z,62.26
2022-09-30T08:26:10.006Z,62.76
2022-09-30T08:27:10.987Z,62.66
2022-09-30T08:28:09.977Z,62.96
2022-09-30T08:29:09.965Z,62.86
2022-09-30T08:30:09.963Z,63.37
2022-09-30T08:31:09.963Z,63.07
2022-09-30T08:32:09.925Z,64.75
2022-09-30T08:33:09.912Z,64.92
2022-09-30T08:34:09.910Z,63.81
2022-09-30T08:35:09.893Z,64.64
2022-09-30T08:36:09.892Z,64.21
2022-09-30T08:37:09.872Z,64.54
2022-09-30T08:38:09.866Z,64.88
2022-09-30T08:39:09.854Z,64.31
2022-09-30T08:40:09.845Z,64.48
2022-09-30T08:41:09.848Z,64.28
2022-09-30T08:42:09.820Z,64.34
2022-09-30T08:43:09.815Z,65.02
2022-09-30T08:44:09.796Z,64.21
2022-09-30T08:45:09.792Z,64.82
2022-09-30T08:46:09.782Z,65.22
2022-09-30T08:47:09.764Z,64.38
2022-09-30T08:48:09.938Z,64.28
2022-09-30T08:49:09.897Z,63.84
2022-09-30T08:50:09.728Z,62.7
2022-09-30T08:51:09.921Z,62.5
2022-09-30T08:52:09.712Z,63.34
2022-09-30T08:53:09.699Z,63.21
2022-09-30T08:54:09.711Z,62.77
2022-09-30T08:55:09.675Z,62.57
2022-09-30T08:56:09.666Z,61.87
2022-09-30T08:57:09.655Z,62.27
2022-09-30T08:58:09.643Z,62.43
2022-09-30T08:59:09.644Z,63.04
2022-09-30T09:00:09.619Z,63.13
2022-09-30T09:01:09.610Z,63.87
2022-09-30T09:02:09.603Z,63.78
2022-09-30T09:03:09.597Z,64.25
2022-09-30T09:04:09.581Z,63.41
2022-09-30T09:05:10.396Z,63.08
2022-09-30T09:06:09.564Z,62.54
2022-09-30T09:07:09.628Z,62.54
2022-09-30T09:08:09.535Z,62.01
2022-09-30T09:09:09.557Z,62.01
2022-09-30T09:10:09.535Z,61.94
2022-09-30T09:11:09.507Z,62.08
2022-09-30T09:12:09.494Z,62.04
2022-09-30T09:13:09.479Z,62.11
2022-09-30T09:14:09.477Z,61.8
2022-09-30T09:15:09.466Z,62.11
2022-09-30T09:16:09.451Z,62.51
2022-09-30T09:17:09.447Z,62.31
2022-09-30T09:18:09.431Z,62.21
2022-09-30T09:19:09.420Z,62.18
2022-09-30T09:20:09.416Z,62.48
2022-09-30T09:21:09.411Z,62.01
2022-09-30T09:22:09.399Z,62.31
2022-09-30T09:23:09.377Z,62.82
2022-09-30T09:24:09.361Z,62.82
2022-09-30T09:25:09.351Z,63.12
2022-09-30T09:26:09.347Z,62.48
2022-09-30T09:27:09.328Z,62.35
2022-09-30T09:28:09.328Z,61.85
2022-09-30T09:29:09.307Z,62.25
2022-09-30T09:30:09.300Z,61.72
2022-09-30T09:31:09.289Z,61.72
2022-09-30T09:32:09.282Z,61.61
2022-09-30T09:33:09.287Z,61.49
2022-09-30T09:34:09.255Z,61.41
2022-09-30T09:35:09.245Z,61.82
2022-09-30T09:36:09.233Z,61.49
2022-09-30T09:37:09.221Z,61.08
2022-09-30T09:38:09.205Z,60.85
2022-09-30T09:39:09.207Z,60.38
2022-09-30T09:40:09.189Z,61.59
2022-09-30T09:41:09.186Z,61.82
2022-09-30T09:42:09.272Z,61.69
2022-09-30T09:43:09.154Z,62.43
2022-09-30T09:44:09.148Z,62.83
2022-09-30T09:45:09.149Z,61.99
2022-09-30T09:46:09.145Z,61.66
2022-09-30T09:47:09.120Z,61.46
2022-09-30T09:48:09.099Z,61.16
2022-09-30T09:49:09.134Z,60.83
2022-09-30T09:50:09.082Z,61
2022-09-30T09:51:09.139Z,61
2022-09-30T09:52:09.063Z,60.49
2022-09-30T09:53:09.078Z,61.86
2022-09-30T09:54:09.109Z,61.66
2022-09-30T09:55:09.121Z,62.13
2022-09-30T09:56:09.043Z,61.73
2022-09-30T09:57:09.014Z,61.2
2022-09-30T09:58:08.995Z,60.27
2022-09-30T09:59:08.989Z,60.77
2022-09-30T10:00:08.976Z,60.03
2022-09-30T10:01:08.958Z,59.74
2022-09-30T10:02:08.955Z,60.06
2022-09-30T10:03:08.941Z,59.94
2022-09-30T10:04:08.941Z,59.8
2022-09-30T10:05:08.928Z,59.3
2022-09-30T10:06:08.917Z,59.33
2022-09-30T10:07:08.896Z,59.33
2022-09-30T10:08:08.889Z,59.96
2022-09-30T10:09:08.881Z,60.49
2022-09-30T10:10:08.865Z,59.69
2022-09-30T10:11:08.851Z,61.46
2022-09-30T10:12:08.842Z,61.82
2022-09-30T10:13:08.835Z,61.32
2022-09-30T10:14:08.831Z,61.08
2022-09-30T10:15:08.819Z,59.04
2022-09-30T10:16:08.800Z,58.34
2022-09-30T10:17:08.797Z,56.22
2022-09-30T10:18:08.834Z,55.99
2022-09-30T10:19:08.778Z,55.26
2022-09-30T10:20:08.766Z,55.36
2022-09-30T10:21:08.747Z,55.26
2022-09-30T10:22:08.738Z,55.26
2022-09-30T10:23:08.732Z,55.19
2022-09-30T10:24:08.741Z,55.06
2022-09-30T10:25:08.705Z,54.83
2022-09-30T10:26:08.697Z,54.63
2022-09-30T10:27:08.688Z,53.83
2022-09-30T10:28:08.681Z,53.83
2022-09-30T10:29:08.667Z,53.4
2022-09-30T10:30:08.660Z,53.32
2022-09-30T10:31:08.657Z,53.83
2022-09-30T10:32:08.633Z,54.13
2022-09-30T10:33:08.623Z,53.52
2022-09-30T10:34:08.615Z,53.92
2022-09-30T10:35:08.615Z,53.52
2022-09-30T10:36:08.603Z,53.72
2022-09-30T10:37:08.593Z,54.43
2022-09-30T10:38:08.637Z,53.12
2022-09-30T10:39:08.559Z,53.02
2022-09-30T10:40:08.553Z,52.8
2022-09-30T10:41:08.532Z,52.57
2022-09-30T10:42:08.535Z,52.01
2022-09-30T10:43:08.511Z,51.09
2022-09-30T10:44:08.502Z,50.66
2022-09-30T10:45:08.487Z,49.14
2022-09-30T10:46:08.485Z,46.7
2022-09-30T10:47:08.515Z,46.92
2022-09-30T10:48:08.458Z,49.38
2022-09-30T10:49:08.482Z,51.09
2022-09-30T10:50:08.435Z,48.19
2022-09-30T10:51:08.433Z,47.11
2022-09-30T10:52:08.415Z,46.43
2022-09-30T10:53:08.611Z,44.76
2022-09-30T10:54:08.391Z,42.57
2022-09-30T10:55:08.386Z,40.74
2022-09-30T10:56:08.382Z,40.96
2022-09-30T10:57:08.376Z,39.69
2022-09-30T10:58:08.369Z,39.06
2022-09-30T10:59:08.339Z,38.07
2022-09-30T11:00:08.373Z,41.16
2022-09-30T11:01:08.317Z,40.54
2022-09-30T11:02:08.310Z,42.73
2022-09-30T11:03:08.294Z,44.79
2022-09-30T11:04:08.292Z,46.94
2022-09-30T11:05:08.280Z,44.69
2022-09-30T11:06:08.269Z,41.67
2022-09-30T11:07:08.255Z,41.2
2022-09-30T11:08:08.241Z,40.74
2022-09-30T11:09:08.235Z,37.19
2022-09-30T11:10:08.227Z,38.6
2022-09-30T11:11:08.225Z,39.37
2022-09-30T11:12:08.247Z,41.39
2022-09-30T11:13:08.190Z,42.45
2022-09-30T11:14:08.181Z,40.98
2022-09-30T11:15:08.169Z,38.9
2022-09-30T11:16:08.203Z,37.29
2022-09-30T11:17:08.147Z,39.21
2022-09-30T11:18:08.144Z,38.73
2022-09-30T11:19:08.134Z,38.64
2022-09-30T11:20:08.115Z,38.88
2022-09-30T11:21:08.108Z,37.48
2022-09-30T11:22:08.097Z,36.23
2022-09-30T11:23:08.082Z,38.05
2022-09-30T11:24:08.074Z,37.85
2022-09-30T11:25:08.078Z,37.49
2022-09-30T11:26:08.055Z,36.97
2022-09-30T11:27:08.041Z,37.07
2022-09-30T11:28:08.035Z,37.69
2022-09-30T11:29:08.022Z,37.79
2022-09-30T11:30:08.063Z,37.77
2022-09-30T11:31:08.007Z,37.1
2022-09-30T11:32:07.993Z,35.43
2022-09-30T11:33:08.032Z,33.89
2022-09-30T11:34:08.014Z,34.69
2022-09-30T11:35:07.959Z,36.37
2022-09-30T11:36:07.955Z,35.96
2022-09-30T11:37:07.950Z,35.86
2022-09-30T11:38:07.931Z,35.95
2022-09-30T11:39:07.953Z,36.92
2022-09-30T11:40:07.923Z,36.39
2022-09-30T11:41:08.179Z,36.49
2022-09-30T11:42:07.888Z,35.49
2022-09-30T11:43:07.964Z,36.96
2022-09-30T11:44:08.099Z,35.97
2022-09-30T11:45:07.871Z,36.9
2022-09-30T11:46:07.883Z,35.76
2022-09-30T11:47:07.858Z,35.33
2022-09-30T11:48:07.849Z,35.1
2022-09-30T11:49:07.820Z,36.44
2022-09-30T11:50:07.821Z,38.54
2022-09-30T11:51:07.797Z,39.89
2022-09-30T11:52:07.793Z,39.51
2022-09-30T11:53:08.010Z,39.43
2022-09-30T11:54:07.779Z,38.68
2022-09-30T11:55:07.771Z,37.12
2022-09-30T11:56:07.785Z,35.88
2022-09-30T11:57:07.740Z,35.58
2022-09-30T11:58:07.739Z,35.58
2022-09-30T11:59:07.724Z,36.21
2022-09-30T12:00:07.723Z,36.76
2022-09-30T12:01:07.696Z,38.52
2022-09-30T12:02:07.694Z,38.79
2022-09-30T12:03:07.698Z,38.15
2022-09-30T12:04:07.674Z,37.51
2022-09-30T12:05:07.663Z,36.69
2022-09-30T12:06:07.658Z,37.12
2022-09-30T12:07:07.651Z,37.51
2022-09-30T12:08:07.631Z,36.79
2022-09-30T12:09:07.635Z,36.39
2022-09-30T12:10:07.609Z,35.98
2022-09-30T12:11:07.603Z,36.19
2022-09-30T12:12:07.596Z,37.34
2022-09-30T12:13:07.584Z,36.62
2022-09-30T12:14:07.567Z,36.18
2022-09-30T12:15:07.562Z,0
2022-09-30T12:16:07.598Z,0
2022-09-30T12:17:07.606Z,0
2022-09-30T12:18:07.527Z,0
2022-09-30T12:19:07.515Z,0
2022-09-30T12:20:07.519Z,0
2022-09-30T12:21:07.502Z,0
2022-09-30T12:22:07.497Z,0
2022-09-30T12:23:07.554Z,0
2022-09-30T12:24:07.473Z,0
2022-09-30T12:25:07.456Z,0
2022-09-30T12:26:07.445Z,0
2022-09-30T12:27:07.435Z,41.25
2022-09-30T12:28:07.459Z,0
2022-09-30T12:29:07.462Z,0
2022-09-30T12:30:07.408Z,0
2022-09-30T12:31:07.393Z,0
2022-09-30T12:32:07.386Z,0
2022-09-30T12:33:07.369Z,0
2022-09-30T12:34:07.361Z,0
2022-09-30T12:35:07.370Z,0
2022-09-30T12:36:07.353Z,0
2022-09-30T12:37:07.336Z,0
2022-09-30T12:38:07.330Z,0
2022-09-30T12:39:07.311Z,0
2022-09-30T12:40:07.325Z,0
2022-09-30T12:41:07.367Z,0
2022-09-30T12:42:07.306Z,0
2022-09-30T12:43:07.269Z,0
2022-09-30T12:44:07.260Z,0
2022-09-30T12:45:07.253Z,0
2022-09-30T12:46:07.236Z,43.73
2022-09-30T12:47:07.295Z,44.17
2022-09-30T12:48:07.221Z,45.74
2022-09-30T12:49:07.215Z,46.66
2022-09-30T12:50:07.208Z,46.96
2022-09-30T12:51:07.192Z,46.88
2022-09-30T12:52:07.199Z,47.28
2022-09-30T12:53:07.186Z,0
2022-09-30T12:54:07.186Z,0
2022-09-30T12:55:07.156Z,0
2022-09-30T12:56:07.134Z,0
2022-09-30T12:57:07.128Z,0
2022-09-30T12:58:07.134Z,0
2022-09-30T12:59:07.116Z,0